createdAt,value
2019-04-26T00:01:35.927Z,16.15
2019-04-26T00:04:06.529Z,16.13
2019-04-26T00:06:37.355Z,16.03
2019-04-26T00:09:26.120Z,15.97
2019-04-26T00:12:30.899Z,15.96
2019-04-26T00:15:26.471Z,15.89
2019-04-26T00:17:59.128Z,15.82
2019-04-26T00:20:29.566Z,15.76
2019-04-26T00:23:00.050Z,15.67
2019-04-26T00:25:30.590Z,15.66
2019-04-26T00:28:01.329Z,15.65
2019-04-26T00:30:32.168Z,15.59
2019-04-26T00:33:02.673Z,15.55
2019-04-26T00:35:33.117Z,15.54
2019-04-26T00:38:03.968Z,15.50
2019-04-26T00:40:34.399Z,15.46
2019-04-26T00:43:04.832Z,15.39
2019-04-26T00:45:38.725Z,15.40
2019-04-26T00:48:12.560Z,15.32
2019-04-26T00:50:46.336Z,15.27
2019-04-26T00:53:18.252Z,15.25
2019-04-26T00:55:49.813Z,15.19
2019-04-26T00:58:22.281Z,15.15
2019-04-26T01:00:52.737Z,15.17
2019-04-26T01:03:23.164Z,15.16
2019-04-26T01:06:00.095Z,15.06
2019-04-26T01:08:28.059Z,15.08
2019-04-26T01:10:58.527Z,15.09
2019-04-26T01:13:29.290Z,15.03
2019-04-26T01:15:59.716Z,14.98
2019-04-26T01:18:30.143Z,14.92
2019-04-26T01:21:03.650Z,14.92
2019-04-26T01:23:36.984Z,14.90
2019-04-26T01:26:12.468Z,14.86
2019-04-26T01:28:57.392Z,14.84
2019-04-26T01:31:31.500Z,14.79
2019-04-26T01:34:02.646Z,14.75
2019-04-26T01:36:34.277Z,14.75
2019-04-26T01:39:16.989Z,14.74
2019-04-26T01:41:59.380Z,14.66
2019-04-26T01:44:48.339Z,14.61
2019-04-26T01:47:20.766Z,14.57
2019-04-26T01:49:51.937Z,14.59
2019-04-26T01:52:23.991Z,14.54
2019-04-26T01:54:55.855Z,14.50
2019-04-26T01:57:29.454Z,14.44
2019-04-26T02:00:08.206Z,14.38
2019-04-26T02:02:55.941Z,14.34
2019-04-26T02:05:27.980Z,14.38
2019-04-26T02:07:59.337Z,14.37
2019-04-26T02:10:30.737Z,14.29
2019-04-26T02:13:01.711Z,14.23
2019-04-26T02:15:33.636Z,14.17
2019-04-26T02:18:05.582Z,14.14
2019-04-26T02:21:29.898Z,14.15
2019-04-26T02:24:26.408Z,14.10
2019-04-26T02:26:58.456Z,14.09
2019-04-26T02:29:28.988Z,13.97
2019-04-26T02:32:04.271Z,14.02
2019-04-26T02:34:37.806Z,14.00
2019-04-26T02:37:11.159Z,13.80
2019-04-26T02:39:42.952Z,13.70
2019-04-26T02:42:32.280Z,13.70
2019-04-26T02:45:31.893Z,13.68
2019-04-26T02:48:29.058Z,13.62
2019-04-26T02:51:05.168Z,13.64
2019-04-26T02:54:11.501Z,13.59
2019-04-26T02:56:43.169Z,13.58
2019-04-26T02:59:38.182Z,13.51
2019-04-26T03:02:16.498Z,13.51
2019-04-26T03:04:49.902Z,13.54
2019-04-26T03:07:27.438Z,13.47
2019-04-26T03:10:00.617Z,13.48
2019-04-26T03:12:35.742Z,13.40
2019-04-26T03:15:19.164Z,13.25
2019-04-26T03:18:20.121Z,13.05
2019-04-26T03:20:54.956Z,13.03
2019-04-26T03:23:53.209Z,12.98
2019-04-26T03:26:33.709Z,12.94
2019-04-26T03:29:37.432Z,12.94
2019-04-26T03:32:50.650Z,12.94
2019-04-26T03:35:36.923Z,12.96
2019-04-26T03:38:21.573Z,12.93
2019-04-26T03:41:02.316Z,12.89
2019-04-26T03:43:48.315Z,12.87
2019-04-26T03:46:45.337Z,12.82
2019-04-26T03:50:10.108Z,12.79
2019-04-26T03:53:10.685Z,12.74
2019-04-26T03:56:20.210Z,12.75
2019-04-26T03:59:38.885Z,12.67
2019-04-26T04:02:20.694Z,12.65
2019-04-26T04:05:04.773Z,12.66
2019-04-26T04:07:43.918Z,12.68
2019-04-26T04:10:15.756Z,12.61
2019-04-26T04:13:44.411Z,12.59
2019-04-26T04:16:46.653Z,12.64
2019-04-26T04:20:06.629Z,12.66
2019-04-26T04:22:45.381Z,12.54
2019-04-26T04:25:25.128Z,12.66
2019-04-26T04:28:06.563Z,12.48
2019-04-26T04:31:07.332Z,12.51
2019-04-26T04:34:19.369Z,12.50
2019-04-26T04:36:53.637Z,12.54
2019-04-26T04:39:59.832Z,12.57
2019-04-26T04:42:47.920Z,12.58
2019-04-26T04:46:15.716Z,12.57
2019-04-26T04:49:09.490Z,12.55
2019-04-26T04:52:03.804Z,12.63
2019-04-26T04:54:54.806Z,12.63
2019-04-26T04:57:48.158Z,12.70
2019-04-26T05:01:18.713Z,12.76
2019-04-26T05:03:57.655Z,12.84
2019-04-26T05:06:54.852Z,12.90
2019-04-26T05:09:37.141Z,12.89
2019-04-26T05:12:31.985Z,12.96
2019-04-26T05:15:44.550Z,12.98
2019-04-26T05:19:03.108Z,13.10
2019-04-26T05:21:49.652Z,13.15
2019-04-26T05:24:38.247Z,13.07
2019-04-26T05:27:55.672Z,13.12
2019-04-26T05:31:15.089Z,13.15
2019-04-26T05:34:24.026Z,13.23
2019-04-26T05:37:23.589Z,13.34
2019-04-26T05:40:28.096Z,13.40
2019-04-26T05:43:52.404Z,13.46
2019-04-26T05:47:16.122Z,13.57
2019-04-26T05:50:55.761Z,13.56
2019-04-26T05:54:33.861Z,13.57
2019-04-26T05:57:16.572Z,13.67
2019-04-26T06:00:04.001Z,13.72
2019-04-26T06:03:08.792Z,13.72
2019-04-26T06:06:07.816Z,13.86
2019-04-26T06:09:29.475Z,13.97
2019-04-26T06:12:17.049Z,14.12
2019-04-26T06:15:24.310Z,14.25
2019-04-26T06:18:16.091Z,14.37
2019-04-26T06:20:52.896Z,14.35
2019-04-26T06:24:22.614Z,14.48
2019-04-26T06:27:25.899Z,14.48
2019-04-26T06:30:27.440Z,14.62
2019-04-26T06:33:07.037Z,14.73
2019-04-26T06:35:42.111Z,14.86
2019-04-26T06:39:11.996Z,14.86
2019-04-26T06:42:05.229Z,14.65
2019-04-26T06:45:07.318Z,14.58
2019-04-26T06:47:51.605Z,14.57
2019-04-26T06:50:35.789Z,14.58
2019-04-26T06:53:13.888Z,14.56
2019-04-26T06:55:54.460Z,14.60
2019-04-26T06:59:20.421Z,14.47
2019-04-26T07:01:59.158Z,14.46
2019-04-26T07:05:01.117Z,14.52
2019-04-26T07:08:18.374Z,14.48
2019-04-26T07:12:00.804Z,14.53
2019-04-26T07:14:59.470Z,14.64
2019-04-26T07:18:10.808Z,14.91
2019-04-26T07:20:56.024Z,15.08
2019-04-26T07:24:16.886Z,15.41
2019-04-26T07:27:14.676Z,15.32
2019-04-26T07:30:28.168Z,15.51
2019-04-26T07:33:35.494Z,15.61
2019-04-26T07:36:35.100Z,15.66
2019-04-26T07:39:23.755Z,15.82
2019-04-26T07:42:49.958Z,15.93
2019-04-26T07:45:52.769Z,15.94
2019-04-26T07:48:54.956Z,16.03
2019-04-26T07:52:15.851Z,16.30
2019-04-26T07:55:35.361Z,16.30
2019-04-26T07:58:42.247Z,15.97
2019-04-26T08:02:07.136Z,15.87
2019-04-26T08:04:42.724Z,15.83
2019-04-26T08:07:23.154Z,15.68
2019-04-26T08:10:10.032Z,15.74
2019-04-26T08:12:43.608Z,15.79
2019-04-26T08:15:39.387Z,15.83
2019-04-26T08:18:25.977Z,15.83
2019-04-26T08:21:18.397Z,15.89
2019-04-26T08:23:59.212Z,15.87
2019-04-26T08:26:33.136Z,15.90
2019-04-26T08:29:06.683Z,15.94
2019-04-26T08:31:40.719Z,16.06
2019-04-26T08:34:16.677Z,16.14
2019-04-26T08:36:57.222Z,16.10
2019-04-26T08:39:44.522Z,16.20
2019-04-26T08:42:12.100Z,16.14
2019-04-26T08:44:56.834Z,16.11
2019-04-26T08:47:39.432Z,16.27
2019-04-26T08:50:17.738Z,16.18
2019-04-26T08:52:51.415Z,16.20
2019-04-26T08:55:22.940Z,16.12
2019-04-26T08:57:56.280Z,16.14
2019-04-26T09:00:54.586Z,16.13
2019-04-26T09:03:40.761Z,16.09
2019-04-26T09:06:20.292Z,16.05
2019-04-26T09:08:53.559Z,16.11
2019-04-26T09:11:33.513Z,16.06
2019-04-26T09:14:00.920Z,16.16
2019-04-26T09:16:31.829Z,16.10
2019-04-26T09:19:02.651Z,16.10
2019-04-26T09:21:47.395Z,16.09
2019-04-26T09:24:41.169Z,15.99
2019-04-26T09:27:22.496Z,15.92
2019-04-26T09:30:05.152Z,15.87
2019-04-26T09:32:48.713Z,15.94
2019-04-26T09:35:19.202Z,16.10
2019-04-26T09:37:49.698Z,16.17
2019-04-26T09:40:22.680Z,16.27
2019-04-26T09:43:17.739Z,16.30
2019-04-26T09:46:10.452Z,16.22
2019-04-26T09:49:07.093Z,16.13
2019-04-26T09:51:39.084Z,16.00
2019-04-26T09:54:08.748Z,16.00
2019-04-26T09:56:39.561Z,15.82
2019-04-26T09:59:10.373Z,15.71
2019-04-26T10:01:40.855Z,15.68
2019-04-26T10:04:12.039Z,15.57
2019-04-26T10:06:42.776Z,15.48
2019-04-26T10:09:21.282Z,15.47
2019-04-26T10:11:54.896Z,15.51
2019-04-26T10:14:48.035Z,15.47
2019-04-26T10:17:22.648Z,15.44
2019-04-26T10:19:55.349Z,15.55
2019-04-26T10:22:27.659Z,15.48
2019-04-26T10:25:02.407Z,15.57
2019-04-26T10:27:32.462Z,15.54
2019-04-26T10:30:08.989Z,15.51
2019-04-26T10:32:35.598Z,15.51
2019-04-26T10:35:06.200Z,15.60
2019-04-26T10:37:39.564Z,15.68
2019-04-26T10:40:09.636Z,15.64
2019-04-26T10:42:40.973Z,15.64
2019-04-26T10:45:14.694Z,15.51
2019-04-26T10:47:45.528Z,15.48
2019-04-26T10:50:16.911Z,15.55
2019-04-26T10:52:54.276Z,15.59
2019-04-26T10:55:58.810Z,15.73
2019-04-26T10:58:42.952Z,15.80
2019-04-26T11:01:15.529Z,15.99
2019-04-26T11:03:45.961Z,16.10
2019-04-26T11:06:16.882Z,16.29
2019-04-26T11:08:47.704Z,16.32
2019-04-26T11:11:18.300Z,16.26
2019-04-26T11:13:49.176Z,16.16
2019-04-26T11:16:19.612Z,16.20
2019-04-26T11:18:50.858Z,16.24
2019-04-26T11:21:22.491Z,16.11
2019-04-26T11:23:52.994Z,16.09
2019-04-26T11:26:23.491Z,16.12
2019-04-26T11:28:55.825Z,16.32
2019-04-26T11:31:27.668Z,16.39
2019-04-26T11:34:05.143Z,16.43
2019-04-26T11:36:31.481Z,16.21
2019-04-26T11:39:05.448Z,16.01
2019-04-26T11:41:37.253Z,16.11
2019-04-26T11:44:06.269Z,16.20
2019-04-26T11:46:44.659Z,16.15
2019-04-26T11:49:10.068Z,16.19
2019-04-26T11:51:40.890Z,16.05
2019-04-26T11:54:11.637Z,15.94
2019-04-26T11:56:42.483Z,15.91
2019-04-26T11:59:13.154Z,15.86
2019-04-26T12:01:43.598Z,16.04
2019-04-26T12:04:32.001Z,16.16
2019-04-26T12:07:12.203Z,16.19
2019-04-26T12:09:47.174Z,16.17
2019-04-26T12:12:17.611Z,16.31
2019-04-26T12:14:48.444Z,16.23
2019-04-26T12:17:19.014Z,16.21
2019-04-26T12:19:52.293Z,16.02
2019-04-26T12:22:22.505Z,15.92
2019-04-26T12:24:53.000Z,15.89
2019-04-26T12:27:26.632Z,15.74
2019-04-26T12:29:55.840Z,15.81
2019-04-26T12:32:26.320Z,15.71
2019-04-26T12:34:57.105Z,15.65
2019-04-26T12:37:27.971Z,15.60
2019-04-26T12:39:58.726Z,15.64
2019-04-26T12:42:29.450Z,15.50
2019-04-26T12:45:19.886Z,15.54
2019-04-26T12:47:53.240Z,15.70
2019-04-26T12:50:23.685Z,15.69
2019-04-26T12:52:55.826Z,15.72
2019-04-26T12:55:26.537Z,15.58
2019-04-26T12:57:57.740Z,15.45
2019-04-26T13:00:33.056Z,15.54
2019-04-26T13:03:03.800Z,15.38
2019-04-26T13:05:34.241Z,15.27
2019-04-26T13:08:04.733Z,15.24
2019-04-26T13:10:54.476Z,15.07
2019-04-26T13:13:28.940Z,15.03
2019-04-26T13:16:12.125Z,15.00
2019-04-26T13:18:45.207Z,15.09
2019-04-26T13:21:14.815Z,15.05
2019-04-26T13:23:48.001Z,15.06
2019-04-26T13:26:17.643Z,15.08
2019-04-26T13:28:52.418Z,14.98
2019-04-26T13:31:20.984Z,14.95
2019-04-26T13:33:51.473Z,14.88
2019-04-26T13:36:25.269Z,14.78
2019-04-26T13:38:55.596Z,14.74
2019-04-26T13:41:27.981Z,14.60
2019-04-26T13:44:00.941Z,14.50
2019-04-26T13:46:49.332Z,14.38
2019-04-26T13:49:36.596Z,14.40
2019-04-26T13:52:07.521Z,14.33
2019-04-26T13:54:37.976Z,14.21
2019-04-26T13:57:10.079Z,14.06
2019-04-26T13:59:41.026Z,13.95
2019-04-26T14:02:12.218Z,13.90
2019-04-26T14:04:42.799Z,13.95
2019-04-26T14:07:13.264Z,13.93
2019-04-26T14:09:43.691Z,13.97
2019-04-26T14:12:18.824Z,13.98
2019-04-26T14:14:46.728Z,13.96
2019-04-26T14:17:17.607Z,13.89
2019-04-26T14:19:49.587Z,13.84
2019-04-26T14:22:22.097Z,13.78
2019-04-26T14:24:58.650Z,13.82
2019-04-26T14:27:33.219Z,13.62
2019-04-26T14:30:06.423Z,13.63
2019-04-26T14:32:35.995Z,13.67
2019-04-26T14:35:06.722Z,13.44
2019-04-26T14:37:37.209Z,13.49
2019-04-26T14:40:16.607Z,13.48
2019-04-26T14:42:45.984Z,13.32
2019-04-26T14:45:22.723Z,13.21
2019-04-26T14:47:47.550Z,13.20
2019-04-26T14:50:17.012Z,13.30
2019-04-26T14:52:47.432Z,13.21
2019-04-26T14:55:21.206Z,13.12
2019-04-26T14:57:53.814Z,13.11
2019-04-26T15:00:29.426Z,13.03
2019-04-26T15:03:12.252Z,13.06
2019-04-26T15:05:55.610Z,13.04
2019-04-26T15:08:26.361Z,12.90
2019-04-26T15:11:01.002Z,12.95
2019-04-26T15:13:29.348Z,12.79
2019-04-26T15:16:04.025Z,12.68
2019-04-26T15:18:33.844Z,12.66
2019-04-26T15:21:04.616Z,12.69
2019-04-26T15:23:36.626Z,12.58
2019-04-26T15:26:07.158Z,12.47
2019-04-26T15:28:38.000Z,12.36
2019-04-26T15:31:08.454Z,12.39
2019-04-26T15:33:44.191Z,12.45
2019-04-26T15:36:14.524Z,12.38
2019-04-26T15:38:45.618Z,12.30
2019-04-26T15:41:37.429Z,12.33
2019-04-26T15:44:28.324Z,12.29
2019-04-26T15:47:21.170Z,12.18
2019-04-26T15:49:56.328Z,12.15
2019-04-26T15:52:30.175Z,12.10
2019-04-26T15:55:04.088Z,12.10
2019-04-26T15:57:34.698Z,12.15
2019-04-26T16:00:06.206Z,12.17
2019-04-26T16:02:36.951Z,12.14
2019-04-26T16:05:09.871Z,12.20
2019-04-26T16:07:42.895Z,12.25
2019-04-26T16:10:13.613Z,12.23
2019-04-26T16:12:44.401Z,12.23
2019-04-26T16:15:14.973Z,12.25
2019-04-26T16:17:46.728Z,12.14
2019-04-26T16:20:17.165Z,12.16
2019-04-26T16:22:49.255Z,12.25
2019-04-26T16:25:20.128Z,12.20
2019-04-26T16:28:12.577Z,12.15
2019-04-26T16:30:53.185Z,12.21
2019-04-26T16:33:28.408Z,12.22
2019-04-26T16:36:02.624Z,12.26
2019-04-26T16:38:36.041Z,12.26
2019-04-26T16:41:07.066Z,12.26
2019-04-26T16:43:40.494Z,12.30
2019-04-26T16:46:14.716Z,12.26
2019-04-26T16:48:42.564Z,12.31
2019-04-26T16:51:14.485Z,12.29
2019-04-26T16:54:03.653Z,12.32
2019-04-26T16:56:25.947Z,12.25
2019-04-26T16:58:53.695Z,12.28
2019-04-26T17:01:23.605Z,12.20
2019-04-26T17:03:54.217Z,12.17
2019-04-26T17:06:25.031Z,12.17
2019-04-26T17:09:01.248Z,12.18
2019-04-26T17:11:30.277Z,12.11
2019-04-26T17:14:04.329Z,12.14
2019-04-26T17:16:34.769Z,12.12
2019-04-26T17:19:05.611Z,12.14
2019-04-26T17:21:43.050Z,12.21
2019-04-26T17:24:38.093Z,12.11
2019-04-26T17:27:12.966Z,12.05
2019-04-26T17:29:43.505Z,12.11
2019-04-26T17:32:17.359Z,11.95
2019-04-26T17:34:46.979Z,11.93
2019-04-26T17:37:17.779Z,11.93
2019-04-26T17:39:52.125Z,11.93
2019-04-26T17:42:25.121Z,11.87
2019-04-26T17:44:57.646Z,11.79
2019-04-26T17:47:32.176Z,11.88
2019-04-26T17:50:02.747Z,11.92
2019-04-26T17:52:35.994Z,11.84
2019-04-26T17:55:07.872Z,11.80
2019-04-26T17:57:43.471Z,11.84
2019-04-26T18:00:15.452Z,11.88
2019-04-26T18:02:48.151Z,11.77
2019-04-26T18:05:19.043Z,11.80
2019-04-26T18:07:57.953Z,11.72
2019-04-26T18:10:22.969Z,11.72
2019-04-26T18:12:54.261Z,11.77
2019-04-26T18:15:24.698Z,11.69
2019-04-26T18:18:25.138Z,11.65
2019-04-26T18:21:07.141Z,11.75
2019-04-26T18:23:39.702Z,11.76
2019-04-26T18:26:11.417Z,11.72
2019-04-26T18:28:46.278Z,11.71
2019-04-26T18:31:17.977Z,11.66
2019-04-26T18:33:48.175Z,11.67
2019-04-26T18:36:19.024Z,11.57
2019-04-26T18:38:50.656Z,11.67
2019-04-26T18:41:28.809Z,11.65
2019-04-26T18:44:00.968Z,11.62
2019-04-26T18:46:40.473Z,11.67
2019-04-26T18:49:11.459Z,11.64
2019-04-26T18:51:48.267Z,11.62
2019-04-26T18:54:36.230Z,11.58
2019-04-26T18:57:09.557Z,11.50
2019-04-26T18:59:44.778Z,11.47
2019-04-26T19:02:18.714Z,11.61
2019-04-26T19:04:49.660Z,11.53
2019-04-26T19:07:31.333Z,11.47
2019-04-26T19:09:59.540Z,11.44
2019-04-26T19:12:27.287Z,11.43
2019-04-26T19:15:11.475Z,11.32
2019-04-26T19:18:00.219Z,11.44
2019-04-26T19:20:44.422Z,11.39
2019-04-26T19:23:15.653Z,11.37
2019-04-26T19:25:46.712Z,11.38
2019-04-26T19:28:17.526Z,11.36
2019-04-26T19:30:50.985Z,11.30
2019-04-26T19:33:21.679Z,11.26
2019-04-26T19:35:53.638Z,11.23
2019-04-26T19:38:24.079Z,11.24
2019-04-26T19:40:54.542Z,11.27
2019-04-26T19:43:31.072Z,11.24
2019-04-26T19:46:34.524Z,11.19
2019-04-26T19:49:33.391Z,11.24
2019-04-26T19:52:12.682Z,11.35
2019-04-26T19:54:56.676Z,11.52
2019-04-26T19:57:39.030Z,11.57
2019-04-26T20:00:09.371Z,11.54
2019-04-26T20:02:41.923Z,11.48
2019-04-26T20:05:17.417Z,11.52
2019-04-26T20:07:49.295Z,11.38
2019-04-26T20:10:20.666Z,11.35
2019-04-26T20:12:52.742Z,11.25
2019-04-26T20:15:26.751Z,11.13
2019-04-26T20:17:59.646Z,11.29
2019-04-26T20:20:34.515Z,11.26
2019-04-26T20:23:05.902Z,11.29
2019-04-26T20:25:35.309Z,11.29
2019-04-26T20:28:06.256Z,11.27
2019-04-26T20:30:57.456Z,11.19
2019-04-26T20:33:31.081Z,11.10
2019-04-26T20:36:03.355Z,10.99
2019-04-26T20:38:35.865Z,10.92
2019-04-26T20:41:05.090Z,10.93
2019-04-26T20:43:36.814Z,11.02
2019-04-26T20:46:14.501Z,10.97
2019-04-26T20:48:42.634Z,10.94
2019-04-26T20:51:13.203Z,11.01
2019-04-26T20:53:45.934Z,10.97
2019-04-26T20:56:18.775Z,11.07
2019-04-26T20:58:49.181Z,10.95
2019-04-26T21:01:20.178Z,10.91
2019-04-26T21:03:51.751Z,11.03
2019-04-26T21:06:22.376Z,10.98
2019-04-26T21:08:54.100Z,10.98
2019-04-26T21:11:24.975Z,10.90
2019-04-26T21:13:56.088Z,10.87
2019-04-26T21:16:28.411Z,10.82
2019-04-26T21:18:59.275Z,10.79
2019-04-26T21:21:32.009Z,10.91
2019-04-26T21:24:05.513Z,10.86
2019-04-26T21:26:54.567Z,10.95
2019-04-26T21:29:52.508Z,11.00
2019-04-26T21:32:30.777Z,10.93
2019-04-26T21:35:03.621Z,10.94
2019-04-26T21:37:58.429Z,10.88
2019-04-26T21:41:04.404Z,10.92
2019-04-26T21:43:34.812Z,10.89
2019-04-26T21:46:08.488Z,10.78
2019-04-26T21:48:41.890Z,11.02
2019-04-26T21:51:14.469Z,11.11
2019-04-26T21:53:45.136Z,11.18
2019-04-26T21:56:16.553Z,11.20
2019-04-26T21:58:47.009Z,11.17
2019-04-26T22:01:21.037Z,11.05
2019-04-26T22:03:55.322Z,11.07
2019-04-26T22:06:28.281Z,11.02
2019-04-26T22:09:13.901Z,10.92
2019-04-26T22:11:44.807Z,10.90
2019-04-26T22:14:23.492Z,10.94
2019-04-26T22:17:15.704Z,10.81
2019-04-26T22:20:16.862Z,10.75
2019-04-26T22:23:11.702Z,10.81
2019-04-26T22:25:43.850Z,10.85
2019-04-26T22:28:14.726Z,10.76
2019-04-26T22:30:45.248Z,10.68
2019-04-26T22:33:15.731Z,10.57
2019-04-26T22:35:50.571Z,10.51
2019-04-26T22:38:23.698Z,10.55
2019-04-26T22:40:53.256Z,10.60
2019-04-26T22:43:53.895Z,10.67
2019-04-26T22:46:47.234Z,10.77
2019-04-26T22:49:17.034Z,10.77
2019-04-26T22:51:47.950Z,10.75
2019-04-26T22:54:18.447Z,10.60
2019-04-26T22:56:48.919Z,10.56
2019-04-26T22:59:19.388Z,10.59
2019-04-26T23:01:49.886Z,10.65
2019-04-26T23:04:23.536Z,10.69
2019-04-26T23:06:56.202Z,10.64
2019-04-26T23:09:25.980Z,10.63
2019-04-26T23:12:03.786Z,10.57
2019-04-26T23:14:59.716Z,10.51
2019-04-26T23:18:03.605Z,10.54
2019-04-26T23:20:38.000Z,10.44
2019-04-26T23:23:08.816Z,10.42
2019-04-26T23:25:39.724Z,10.46
2019-04-26T23:28:10.667Z,10.45
2019-04-26T23:30:42.518Z,10.45
2019-04-26T23:33:15.143Z,10.42
2019-04-26T23:35:47.685Z,10.39
2019-04-26T23:38:18.216Z,10.37
2019-04-26T23:40:48.677Z,10.35
2019-04-26T23:43:24.097Z,10.36
2019-04-26T23:45:53.063Z,10.36
2019-04-26T23:48:24.631Z,10.40
2019-04-26T23:50:55.070Z,10.38
2019-04-26T23:53:25.817Z,10.49
2019-04-26T23:55:57.375Z,10.46
2019-04-26T23:58:28.211Z,10.43
